Time;durP1;ratioP1;P1;durP2;ratioP2;P2;SDS_P1;SDS_P2;PMS_P1;PMS_P2;Temp;Humidity;BMP_temperature;BMP_pressure;BME280_temperature;BME280_humidity;BME280_pressure;Samples;Min_cycle;Max_cycle;Signal;HPM_P1;HPM_P2
2023/03/30 00:01:15;;;;;;;6.57;4.50;;;;;;;10.08;97.03;99979.25;4923361;28;20585;-72
2023/03/30 00:03:44;;;;;;;8.73;4.43;;;;;;;10.01;97.30;99965.06;4956952;28;20250;-72
2023/03/30 00:06:13;;;;;;;10.93;4.30;;;;;;;9.90;97.55;99962.31;4944120;28;20208;-72
2023/03/30 00:08:40;;;;;;;10.70;4.60;;;;;;;9.91;97.76;99968.47;4937581;28;20213;-72
2023/03/30 00:11:10;;;;;;;8.40;4.50;;;;;;;10.15;96.67;99968.72;4917002;28;20214;-72
2023/03/30 00:13:37;;;;;;;7.97;5.20;;;;;;;10.11;96.20;99953.69;4921871;28;20701;-72
2023/03/30 00:16:06;;;;;;;8.37;4.53;;;;;;;10.09;96.61;99950.16;4945741;28;20250;-72
2023/03/30 00:18:33;;;;;;;8.07;4.40;;;;;;;9.98;96.54;99951.78;4954940;28;20599;-72
2023/03/30 00:21:01;;;;;;;7.80;4.33;;;;;;;9.87;97.10;99951.69;4982212;28;20706;-70
2023/03/30 00:23:30;;;;;;;9.83;4.53;;;;;;;9.74;97.43;99956.00;4914118;28;20434;-72
2023/03/30 00:25:56;;;;;;;8.40;4.30;;;;;;;9.64;97.75;99943.56;4943151;28;20213;-72
2023/03/30 00:28:24;;;;;;;7.70;4.17;;;;;;;9.64;98.03;99942.69;4951690;28;20198;-72
2023/03/30 00:30:52;;;;;;;9.33;4.60;;;;;;;9.65;98.41;99932.13;4981921;28;20198;-72
2023/03/30 00:33:21;;;;;;;6.13;4.33;;;;;;;9.59;98.76;99926.75;4911360;28;20252;-72
2023/03/30 00:36:07;;;;;;;8.00;4.20;;;;;;;9.49;98.95;99922.25;4910021;28;20307;-72
2023/03/30 00:38:34;;;;;;;6.73;4.30;;;;;;;9.36;99.11;99920.34;4927026;28;20225;-72
2023/03/30 00:41:01;;;;;;;9.43;4.97;;;;;;;9.34;99.64;99930.03;4943177;28;20215;-72
2023/03/30 00:43:28;;;;;;;10.60;4.70;;;;;;;9.24;100.00;99929.03;4926319;28;20574;-72
2023/03/30 00:45:56;;;;;;;8.57;4.50;;;;;;;9.13;100.00;99935.06;4948957;28;20217;-72
2023/03/30 00:48:33;;;;;;;8.07;5.00;;;;;;;9.00;100.00;99934.91;4944496;28;20697;-72
2023/03/30 00:51:06;;;;;;;8.07;4.40;;;;;;;8.92;100.00;99939.22;4921003;28;20585;-72
2023/03/30 00:53:36;;;;;;;7.43;4.40;;;;;;;8.89;100.00;99933.91;4916266;28;20205;-72
2023/03/30 00:56:06;;;;;;;7.57;4.70;;;;;;;8.94;100.00;99934.84;4926631;28;20559;-72
2023/03/30 00:58:34;;;;;;;7.87;4.63;;;;;;;8.84;100.00;99935.59;4929172;28;20682;-72
2023/03/30 01:01:03;;;;;;;8.37;4.13;;;;;;;8.77;100.00;99929.31;4922031;28;20260;-73
2023/03/30 01:03:37;;;;;;;8.20;4.50;;;;;;;8.67;100.00;99943.28;4913237;28;20615;-72
2023/03/30 01:06:09;;;;;;;8.27;4.67;;;;;;;8.65;100.00;99944.13;4979172;28;20200;-72
2023/03/30 01:08:36;;;;;;;8.43;4.53;;;;;;;8.68;100.00;99945.06;4930018;28;20215;-71
2023/03/30 01:11:05;;;;;;;9.87;4.73;;;;;;;8.89;100.00;99954.13;4917433;28;20214;-72
2023/03/30 01:13:36;;;;;;;7.23;4.17;;;;;;;8.99;100.00;99951.63;4910165;28;20204;-71
2023/03/30 01:16:17;;;;;;;8.00;4.13;;;;;;;9.07;100.00;99959.66;4939805;28;20223;-71
2023/03/30 01:18:56;;;;;;;9.93;4.30;;;;;;;9.08;100.00;99964.94;4925587;28;20716;-72
2023/03/30 01:21:57;;;;;;;10.10;4.73;;;;;;;9.25;100.00;99953.72;4928231;28;20225;-72
2023/03/30 01:24:47;;;;;;;8.57;4.70;;;;;;;9.30;100.00;99950.25;4938405;28;20262;-72
2023/03/30 01:27:51;;;;;;;6.80;4.80;;;;;;;9.40;99.47;99944.19;4922379;28;21835;-72
2023/03/30 01:30:39;;;;;;;6.70;4.10;;;;;;;9.50;97.46;99945.16;4932647;28;20206;-72
2023/03/30 01:33:25;;;;;;;7.37;3.80;;;;;;;9.44;97.76;99945.09;4950885;28;20206;-72
2023/03/30 01:36:21;;;;;;;6.40;3.80;;;;;;;9.55;96.68;99937.28;4944126;28;20238;-72
2023/03/30 01:39:14;;;;;;;5.60;3.70;;;;;;;9.48;97.03;99938.97;4942048;28;20211;-72
2023/03/30 01:42:32;;;;;;;7.27;3.40;;;;;;;9.42;97.30;99937.16;4934316;28;20223;-73
2023/03/30 01:45:24;;;;;;;5.83;3.70;;;;;;;9.42;97.03;99952.13;4982841;28;20288;-72
2023/03/30 01:48:00;;;;;;;6.03;3.90;;;;;;;9.47;97.09;99954.81;4988412;28;20229;-72
2023/03/30 01:50:33;;;;;;;7.57;4.17;;;;;;;9.47;97.01;99958.34;4949470;28;20260;-72
2023/03/30 01:53:03;;;;;;;6.57;3.90;;;;;;;9.40;97.41;99946.84;4922486;28;20205;-72
2023/03/30 01:55:56;;;;;;;5.00;3.60;;;;;;;9.35;97.77;99942.38;4930046;28;20212;-72
2023/03/30 01:58:27;;;;;;;6.60;4.33;;;;;;;9.41;97.79;99942.44;4933393;28;20822;-72
2023/03/30 02:00:56;;;;;;;6.47;4.20;;;;;;;9.37;97.65;99935.34;4934638;28;20252;-72
2023/03/30 02:03:30;;;;;;;8.07;4.40;;;;;;;9.42;98.08;99933.63;4952735;28;20207;-72
2023/03/30 02:06:08;;;;;;;8.23;3.90;;;;;;;9.43;98.04;99936.28;4917414;28;20210;-72
2023/03/30 02:08:37;;;;;;;7.03;4.17;;;;;;;9.52;97.70;99940.78;4956965;28;20236;-72
2023/03/30 02:11:03;;;;;;;9.60;4.50;;;;;;;9.44;97.99;99955.69;4904828;28;20233;-72
2023/03/30 02:13:31;;;;;;;7.87;4.50;;;;;;;9.41;98.23;99953.88;4931059;28;20204;-72
2023/03/30 02:16:03;;;;;;;9.23;4.37;;;;;;;9.45;98.37;99944.22;4929205;28;20231;-71
2023/03/30 02:18:30;;;;;;;8.90;4.17;;;;;;;9.46;98.59;99939.84;4939781;28;20200;-72
2023/03/30 02:20:57;;;;;;;7.13;3.80;;;;;;;9.50;98.41;99928.41;4965639;28;20576;-72
2023/03/30 02:23:29;;;;;;;7.70;4.40;;;;;;;9.49;98.23;99930.19;4974191;28;20206;-72
2023/03/30 02:25:56;;;;;;;7.67;4.07;;;;;;;9.54;97.70;99931.09;4960516;28;20214;-72
2023/03/30 02:28:23;;;;;;;7.60;3.87;;;;;;;9.60;97.60;99920.59;4913750;28;20660;-71
2023/03/30 02:30:49;;;;;;;6.63;3.83;;;;;;;9.56;97.57;99928.47;4947858;28;20210;-72
2023/03/30 02:33:39;;;;;;;9.73;3.53;;;;;;;9.55;97.78;99922.31;4962009;28;20655;-72
2023/03/30 02:36:06;;;;;;;6.80;3.90;;;;;;;9.58;98.03;99917.03;4929026;28;20210;-71
2023/03/30 02:38:46;;;;;;;5.37;3.77;;;;;;;9.57;98.11;99922.31;4913042;28;20692;-72
2023/03/30 02:41:45;;;;;;;5.80;3.67;;;;;;;9.60;98.16;99906.47;4963708;28;20227;-72
2023/03/30 02:44:41;;;;;;;8.20;4.60;;;;;;;9.62;98.06;99924.16;4947742;28;20202;-72
2023/03/30 02:47:21;;;;;;;6.73;3.70;;;;;;;9.65;97.92;99924.19;4946727;28;20245;-72
2023/03/30 02:49:59;;;;;;;7.53;3.90;;;;;;;9.69;97.87;99935.69;4977294;28;20260;-72
2023/03/30 02:52:49;;;;;;;6.80;3.83;;;;;;;9.69;97.71;99938.31;4922720;28;20573;-72
2023/03/30 02:55:33;;;;;;;6.83;3.87;;;;;;;9.70;97.53;99948.91;4937814;28;20201;-72
2023/03/30 02:58:12;;;;;;;5.77;3.50;;;;;;;9.81;97.25;99956.06;4905517;28;20238;-72
2023/03/30 03:00:49;;;;;;;6.47;3.77;;;;;;;9.79;97.06;99955.16;4929922;28;20201;-72
2023/03/30 03:03:22;;;;;;;5.40;3.67;;;;;;;9.91;96.39;99945.56;4911112;28;20255;-72
2023/03/30 03:05:54;;;;;;;7.27;4.37;;;;;;;9.94;96.51;99956.16;4925725;28;20242;-73
2023/03/30 03:08:24;;;;;;;7.00;3.70;;;;;;;9.94;95.90;99950.00;4917863;28;20235;-73
2023/03/30 03:10:51;;;;;;;7.80;3.63;;;;;;;9.87;96.24;99957.00;4912862;28;20211;-73
2023/03/30 03:13:19;;;;;;;5.80;3.83;;;;;;;9.89;96.10;99957.88;4915820;28;20386;-73
2023/03/30 03:15:46;;;;;;;5.47;4.07;;;;;;;9.94;95.93;99963.22;4913385;28;20209;-74
2023/03/30 03:18:12;;;;;;;6.07;3.80;;;;;;;9.93;95.82;99978.19;4949460;28;20220;-72
2023/03/30 03:20:39;;;;;;;6.50;3.87;;;;;;;9.94;95.94;99965.88;4968054;28;20196;-74
2023/03/30 03:23:06;;;;;;;9.30;3.53;;;;;;;9.91;95.90;99953.50;4923278;28;20236;-74
2023/03/30 03:25:32;;;;;;;8.83;3.87;;;;;;;9.93;95.83;99935.88;4914569;28;20272;-72
2023/03/30 03:27:59;;;;;;;9.80;3.90;;;;;;;9.97;94.77;99912.97;4920000;28;20307;-73
2023/03/30 03:30:25;;;;;;;6.13;3.63;;;;;;;9.90;95.49;99895.31;4939701;28;20969;-72
2023/03/30 03:32:51;;;;;;;7.60;3.83;;;;;;;9.86;94.99;99869.69;4938205;28;20226;-73
2023/03/30 03:35:18;;;;;;;6.43;3.90;;;;;;;9.89;95.04;99862.69;4928510;28;20221;-72
2023/03/30 03:37:44;;;;;;;10.93;3.73;;;;;;;9.90;94.96;99823.88;4916378;28;20236;-74
2023/03/30 03:40:11;;;;;;;6.77;3.70;;;;;;;9.90;94.79;99789.50;4936550;28;20204;-74
2023/03/30 03:42:37;;;;;;;8.33;3.53;;;;;;;9.90;94.67;99773.63;4913969;28;20721;-73
2023/03/30 03:45:04;;;;;;;11.07;3.90;;;;;;;9.95;94.32;99775.44;4905442;28;20225;-71
2023/03/30 03:47:31;;;;;;;9.90;3.80;;;;;;;9.94;94.82;99776.31;4911495;28;20227;-72
2023/03/30 03:49:58;;;;;;;6.10;3.70;;;;;;;9.97;94.82;99801.88;4912694;28;20296;-72
2023/03/30 03:52:24;;;;;;;7.23;3.73;;;;;;;10.11;94.33;99820.50;4906784;28;20205;-73
2023/03/30 03:54:51;;;;;;;6.90;3.40;;;;;;;10.24;93.46;99799.44;4932536;28;20568;-75
2023/03/30 03:57:17;;;;;;;9.30;3.70;;;;;;;10.31;92.67;99818.88;4995615;22;20714;-72
2023/03/30 03:59:43;;;;;;;11.53;4.10;;;;;;;10.31;92.96;99818.88;5049273;28;20246;-71
2023/03/30 04:02:10;;;;;;;7.70;3.47;;;;;;;10.22;93.04;99810.91;5044852;28;20230;-71
2023/03/30 04:04:36;;;;;;;5.93;3.60;;;;;;;10.20;93.45;99802.94;5035803;28;20195;-71
2023/03/30 04:07:04;;;;;;;7.13;3.77;;;;;;;10.24;93.16;99809.16;5047325;28;20225;-72
2023/03/30 04:09:30;;;;;;;6.73;3.60;;;;;;;10.28;92.68;99808.28;5046917;28;20197;-71
2023/03/30 04:11:57;;;;;;;10.07;3.93;;;;;;;10.26;92.13;99792.41;5049608;28;20238;-71
2023/03/30 04:14:23;;;;;;;6.73;3.63;;;;;;;10.31;92.27;99810.94;5048537;28;20202;-72
2023/03/30 04:16:50;;;;;;;8.10;3.33;;;;;;;10.28;92.44;99808.28;5043674;28;20242;-71
2023/03/30 04:19:17;;;;;;;4.77;3.40;;;;;;;10.50;91.50;99814.56;5046478;28;20203;-73
2023/03/30 04:21:48;;;;;;;6.97;3.50;;;;;;;10.46;91.31;99832.22;5045274;28;20320;-71
2023/03/30 04:24:14;;;;;;;7.77;3.87;;;;;;;10.39;91.72;99827.75;5049014;28;20203;-71
2023/03/30 04:26:44;;;;;;;5.40;3.77;;;;;;;10.37;92.27;99816.25;5049250;28;20199;-71
2023/03/30 04:29:10;;;;;;;8.90;3.80;;;;;;;10.41;92.01;99818.06;5049631;28;20652;-71
2023/03/30 04:31:37;;;;;;;10.73;4.43;;;;;;;10.37;92.38;99816.25;5048050;28;20198;-71
2023/03/30 04:34:03;;;;;;;7.77;3.53;;;;;;;10.34;92.58;99808.31;5043618;28;20236;-71
2023/03/30 04:36:30;;;;;;;6.63;4.07;;;;;;;10.33;92.73;99795.94;5049083;28;20235;-71
2023/03/30 04:38:59;;;;;;;7.13;3.67;;;;;;;10.32;92.60;99805.66;5047765;28;20658;-71
2023/03/30 04:41:32;;;;;;;8.03;4.27;;;;;;;10.30;92.80;99803.88;5045958;28;20594;-73
2023/03/30 04:44:04;;;;;;;6.33;3.60;;;;;;;10.30;93.05;99798.59;5048214;28;20197;-74
2023/03/30 04:46:31;;;;;;;6.13;3.50;;;;;;;10.27;92.94;99788.00;5038778;28;20233;-72
2023/03/30 04:48:57;;;;;;;13.47;9.83;;;;;;;10.28;93.24;99797.69;5045941;28;20198;-74
2023/03/30 04:51:24;;;;;;;11.07;6.53;;;;;;;10.30;93.34;99807.41;5045253;28;20674;-77
2023/03/30 04:53:50;;;;;;;8.57;5.30;;;;;;;10.28;93.26;99805.63;5044208;28;20202;-78
2023/03/30 04:56:17;;;;;;;6.80;4.57;;;;;;;10.33;93.47;99820.66;5047192;28;20229;-78
2023/03/30 04:58:43;;;;;;;5.37;3.60;;;;;;;10.35;93.58;99810.97;5032189;28;20220;-80
2023/03/30 05:01:10;;;;;;;9.30;4.23;;;;;;;10.30;94.39;99799.47;5045750;28;20251;-79
2023/03/30 05:03:36;;;;;;;5.40;3.57;;;;;;;10.33;94.81;99793.31;5046182;28;20211;-79
2023/03/30 05:06:03;;;;;;;7.27;4.00;;;;;;;10.39;96.16;99779.22;5049970;28;20289;-81
2023/03/30 05:08:31;;;;;;;8.00;3.80;;;;;;;10.24;96.41;99764.16;5052800;28;20214;-81
2023/03/30 05:11:01;;;;;;;6.27;4.03;;;;;;;10.26;97.09;99797.69;5047291;28;20201;-81
2023/03/30 05:13:28;;;;;;;10.80;4.67;;;;;;;10.20;98.19;99802.03;5051889;28;20214;-79
2023/03/30 05:15:55;;;;;;;5.60;3.27;;;;;;;10.17;98.61;99800.25;5048092;28;20199;-80
2023/03/30 05:18:22;;;;;;;7.83;4.00;;;;;;;10.23;99.25;99802.97;5051829;28;20223;-79
2023/03/30 05:20:48;;;;;;;9.03;4.20;;;;;;;10.26;99.53;99797.69;5052178;28;20201;-81
2023/03/30 05:23:15;;;;;;;6.17;3.80;;;;;;;10.15;99.95;99795.84;5052671;28;20234;-77
2023/03/30 05:25:45;;;;;;;7.07;3.90;;;;;;;10.04;100.00;99806.38;5052340;28;20234;-76
2023/03/30 05:28:11;;;;;;;6.67;3.30;;;;;;;9.98;100.00;99803.66;5050668;28;20590;-73
2023/03/30 05:30:38;;;;;;;7.57;3.33;;;;;;;9.89;100.00;99808.88;5040073;28;20201;-74
2023/03/30 05:33:04;;;;;;;7.80;3.80;;;;;;;9.88;100.00;99800.06;5046039;28;20218;-75
2023/03/30 05:35:31;;;;;;;12.27;4.13;;;;;;;9.89;100.00;99819.47;5051819;28;20229;-74
2023/03/30 05:37:57;;;;;;;7.30;4.20;;;;;;;9.99;100.00;99818.66;5047245;28;20216;-74
2023/03/30 05:40:24;;;;;;;10.83;4.20;;;;;;;9.94;100.00;99820.38;5052051;28;20281;-72
2023/03/30 05:42:50;;;;;;;10.40;4.30;;;;;;;9.80;100.00;99820.31;5070966;28;20249;-72
2023/03/30 05:45:16;;;;;;;8.33;4.20;;;;;;;9.95;100.00;99838.03;5065844;28;20197;-72
2023/03/30 05:47:43;;;;;;;12.77;4.80;;;;;;;9.89;100.00;99830.94;5046340;28;20226;-73
2023/03/30 05:50:10;;;;;;;8.90;4.60;;;;;;;9.84;100.00;99822.09;5058151;28;20595;-74
2023/03/30 05:52:36;;;;;;;7.83;4.60;;;;;;;9.81;100.00;99798.28;5051050;28;20623;-75
2023/03/30 05:55:03;;;;;;;12.60;5.20;;;;;;;9.81;100.00;99803.56;5050779;28;20621;-73
2023/03/30 05:57:29;;;;;;;11.83;5.20;;;;;;;9.82;100.00;99815.91;5057046;28;20317;-72
2023/03/30 05:59:56;;;;;;;9.97;5.03;;;;;;;9.79;100.00;99796.50;5052968;28;20198;-72
2023/03/30 06:02:23;;;;;;;9.00;4.80;;;;;;;9.81;100.00;99808.84;5055101;28;20212;-74
2023/03/30 06:04:49;;;;;;;13.23;5.13;;;;;;;9.99;100.00;99824.81;5057774;28;20225;-74
2023/03/30 06:07:16;;;;;;;11.60;4.80;;;;;;;9.93;100.00;99832.72;5061078;28;20215;-75
2023/03/30 06:09:43;;;;;;;11.07;5.03;;;;;;;9.98;100.00;99849.50;5057562;28;20674;-76
2023/03/30 06:12:09;;;;;;;9.97;4.83;;;;;;;10.00;100.00;99853.06;5045970;28;20189;-74
2023/03/30 06:14:35;;;;;;;7.97;4.70;;;;;;;9.89;100.00;99845.91;5052181;28;20245;-72
2023/03/30 06:17:02;;;;;;;10.23;4.50;;;;;;;9.86;100.00;99848.53;5052363;28;20709;-73
2023/03/30 06:19:28;;;;;;;12.57;5.00;;;;;;;9.85;100.00;99828.25;5051716;28;20194;-75
2023/03/30 06:21:54;;;;;;;13.60;5.87;;;;;;;9.90;100.00;99831.81;5052954;28;20233;-75
2023/03/30 06:24:21;;;;;;;10.77;5.33;;;;;;;10.10;100.00;99840.78;5051737;28;20201;-75
2023/03/30 06:26:48;;;;;;;10.40;5.30;;;;;;;10.15;100.00;99852.28;5052203;28;20217;-76
2023/03/30 06:29:14;;;;;;;11.37;5.50;;;;;;;10.03;100.00;99845.16;5051927;28;20193;-75
2023/03/30 06:31:41;;;;;;;13.07;6.40;;;;;;;10.09;100.00;99824.91;5052426;28;20202;-75
2023/03/30 06:34:07;;;;;;;11.37;5.30;;;;;;;10.25;100.00;99832.09;5053847;28;20708;-75
2023/03/30 06:36:33;;;;;;;9.53;5.10;;;;;;;10.21;100.00;99851.47;5051801;28;20204;-77
2023/03/30 06:39:12;;;;;;;10.83;5.63;;;;;;;10.20;100.00;99854.97;5043817;28;20231;-75
2023/03/30 06:41:38;;;;;;;12.47;5.03;;;;;;;10.16;100.00;99832.00;5054382;28;20213;-73
2023/03/30 06:44:05;;;;;;;10.93;5.70;;;;;;;10.05;100.00;99814.31;5051721;28;20303;-73
2023/03/30 06:46:32;;;;;;;12.23;5.30;;;;;;;10.05;100.00;99786.97;5057271;28;20678;-74
2023/03/30 06:48:58;;;;;;;13.40;5.70;;;;;;;10.07;100.00;99797.56;5047751;28;20227;-75
2023/03/30 06:51:25;;;;;;;12.07;5.30;;;;;;;10.05;100.00;99801.09;5050915;28;20198;-75
2023/03/30 06:53:51;;;;;;;12.23;5.80;;;;;;;10.20;100.00;99786.16;5045367;28;20224;-75
2023/03/30 06:56:18;;;;;;;13.07;5.43;;;;;;;10.28;100.00;99803.00;5049729;28;20206;-76
2023/03/30 06:58:45;;;;;;;10.43;6.03;;;;;;;10.48;100.00;99809.28;5046761;28;20228;-76
2023/03/30 07:01:17;;;;;;;12.27;5.87;;;;;;;10.60;100.00;99801.38;5051342;28;20244;-79
2023/03/30 07:03:44;;;;;;;10.53;5.73;;;;;;;10.88;100.00;99790.88;5048653;28;20215;-79
2023/03/30 07:06:11;;;;;;;12.10;5.30;;;;;;;11.28;100.00;99807.72;5051410;28;20233;-78
2023/03/30 07:08:37;;;;;;;11.30;5.00;;;;;;;11.63;100.00;99812.19;5048684;28;20219;-83
2023/03/30 07:11:05;;;;;;;15.93;5.70;;;;;;;11.88;99.91;99817.47;5050204;28;20197;-81
2023/03/30 07:13:33;;;;;;;11.83;5.07;;;;;;;11.92;98.78;99810.41;5040541;28;20195;-79
2023/03/30 07:15:59;;;;;;;14.90;5.57;;;;;;;11.89;98.70;99798.03;5049671;28;20199;-78
2023/03/30 07:18:26;;;;;;;11.83;5.47;;;;;;;11.97;98.65;99813.91;5050266;28;21168;-80
2023/03/30 07:20:52;;;;;;;13.20;5.57;;;;;;;11.99;99.16;99798.88;5066043;28;20254;-77
2023/03/30 07:23:18;;;;;;;12.43;4.70;;;;;;;11.96;98.47;99782.09;5050556;28;20257;-75
2023/03/30 07:25:45;;;;;;;16.33;5.20;;;;;;;12.04;97.56;99788.28;5049986;28;20348;-75
2023/03/30 07:28:13;;;;;;;11.03;5.03;;;;;;;12.12;96.87;99818.34;5042471;28;20226;-74
2023/03/30 07:30:39;;;;;;;11.17;4.73;;;;;;;12.24;96.89;99836.88;5050016;28;20245;-72
2023/03/30 07:33:06;;;;;;;11.80;5.00;;;;;;;12.23;96.99;99809.44;5050382;28;20208;-75
2023/03/30 07:35:32;;;;;;;13.47;5.03;;;;;;;12.23;96.76;99829.81;5049370;28;20440;-72
2023/03/30 07:37:59;;;;;;;12.50;5.30;;;;;;;12.24;97.69;99807.69;5051117;28;20332;-75
2023/03/30 07:40:29;;;;;;;15.40;5.17;;;;;;;12.43;96.44;99812.06;5059770;28;20289;-74
2023/03/30 07:42:56;;;;;;;14.63;4.20;;;;;;;12.64;96.89;99805.75;5050027;28;20691;-74
2023/03/30 07:45:23;;;;;;;8.43;4.30;;;;;;;12.63;97.19;99816.41;5050637;28;20205;-73
2023/03/30 07:47:49;;;;;;;13.77;4.57;;;;;;;12.68;97.22;99818.16;5043301;28;20312;-74
2023/03/30 07:50:16;;;;;;;10.60;4.83;;;;;;;12.75;97.43;99813.69;5052344;28;20297;-74
2023/03/30 07:52:42;;;;;;;10.90;4.83;;;;;;;12.75;96.85;99811.91;5047456;28;20678;-72
2023/03/30 07:55:09;;;;;;;18.23;7.97;;;;;;;12.83;96.55;99822.53;5049882;28;20198;-73
2023/03/30 07:57:36;;;;;;;10.97;5.73;;;;;;;12.84;96.44;99837.59;5050273;28;20274;-73
2023/03/30 08:00:04;;;;;;;7.53;4.20;;;;;;;12.82;96.98;99852.66;5047019;28;20222;-73
2023/03/30 08:02:30;;;;;;;9.10;4.77;;;;;;;12.86;97.18;99849.97;5041580;28;20685;-74
2023/03/30 08:04:58;;;;;;;13.87;5.20;;;;;;;12.89;97.15;99854.38;5047543;28;20191;-74
2023/03/30 08:07:26;;;;;;;11.50;4.80;;;;;;;12.93;96.43;99840.19;5050072;28;20269;-73
2023/03/30 08:09:53;;;;;;;7.90;4.13;;;;;;;13.06;96.24;99841.88;5050067;28;20698;-76
2023/03/30 08:12:19;;;;;;;8.27;3.53;;;;;;;13.22;95.81;99844.50;5044538;28;20202;-72
2023/03/30 08:14:45;;;;;;;8.23;3.60;;;;;;;13.63;95.26;99846.88;5049902;28;20655;-73
2023/03/30 08:17:12;;;;;;;7.43;3.50;;;;;;;14.07;92.02;99843.81;5047912;28;20329;-73
2023/03/30 08:19:38;;;;;;;7.63;3.43;;;;;;;14.47;90.58;99843.44;5046217;28;20237;-73
2023/03/30 08:22:05;;;;;;;6.33;3.40;;;;;;;14.78;89.41;99836.84;5049676;28;20199;-74
2023/03/30 08:24:33;;;;;;;7.73;2.93;;;;;;;15.05;87.78;99852.47;5049526;28;20218;-75
2023/03/30 08:27:00;;;;;;;6.47;3.10;;;;;;;15.41;86.78;99846.66;5049122;28;20261;-73
2023/03/30 08:29:28;;;;;;;6.23;3.43;;;;;;;15.74;84.40;99846.16;5047212;28;20693;-72
2023/03/30 08:31:54;;;;;;;4.67;2.97;;;;;;;16.19;82.81;99843.63;5045021;28;20195;-72
2023/03/30 08:34:21;;;;;;;7.83;3.30;;;;;;;16.50;81.34;99838.56;5049585;28;20285;-72
2023/03/30 08:36:47;;;;;;;9.57;2.77;;;;;;;16.86;79.20;99832.53;5053336;28;20234;-72
2023/03/30 08:39:14;;;;;;;8.63;2.87;;;;;;;16.79;78.72;99816.59;5053026;28;20369;-73
2023/03/30 08:42:18;;;;;;;6.80;2.90;;;;;;;16.82;78.61;99840.66;5051319;28;20281;-71
2023/03/30 08:44:51;;;;;;;7.43;2.80;;;;;;;16.88;78.58;99832.50;5051462;28;20226;-72
2023/03/30 08:47:30;;;;;;;5.43;2.87;;;;;;;16.78;78.63;99838.91;5045453;28;20257;-73
2023/03/30 08:50:14;;;;;;;6.93;2.90;;;;;;;16.79;77.80;99828.19;5050948;28;20191;-72
2023/03/30 08:52:41;;;;;;;7.87;2.90;;;;;;;16.86;77.80;99832.53;5049804;28;20290;-71
2023/03/30 08:55:21;;;;;;;6.53;3.20;;;;;;;16.68;78.12;99834.69;5049733;28;20198;-72
2023/03/30 08:58:11;;;;;;;8.03;2.80;;;;;;;16.63;77.85;99848.09;5052024;28;20226;-71
2023/03/30 09:01:13;;;;;;;6.50;2.87;;;;;;;16.36;79.12;99843.28;5052330;28;20213;-74
2023/03/30 09:04:18;;;;;;;6.27;3.13;;;;;;;16.06;80.57;99842.06;5042993;28;20932;-72
2023/03/30 09:06:50;;;;;;;4.40;2.87;;;;;;;15.78;82.05;99831.84;5046650;28;20219;-72
2023/03/30 09:09:24;;;;;;;9.27;4.47;;;;;;;15.48;83.36;99835.84;5051221;28;20272;-73
2023/03/30 09:12:15;;;;;;;5.47;3.23;;;;;;;15.26;84.18;99813.09;5056065;28;20195;-72
2023/03/30 09:14:47;;;;;;;5.23;3.13;;;;;;;15.07;85.21;99817.78;5051209;28;20628;-73
2023/03/30 09:17:17;;;;;;;5.53;3.20;;;;;;;15.10;85.21;99825.75;5053904;28;20223;-72
2023/03/30 09:19:55;;;;;;;5.97;3.10;;;;;;;15.03;85.37;99830.28;5053200;28;20198;-73
2023/03/30 09:22:31;;;;;;;10.20;2.97;;;;;;;15.07;85.57;99841.78;5053511;28;20202;-73
2023/03/30 09:24:58;;;;;;;6.20;3.20;;;;;;;15.12;85.16;99836.41;5050064;28;20215;-72
2023/03/30 09:27:44;;;;;;;5.30;3.07;;;;;;;15.07;85.39;99830.25;5048466;28;20219;-73
2023/03/30 09:30:21;;;;;;;5.90;3.50;;;;;;;15.11;85.14;99840.84;5046577;28;20647;-72
2023/03/30 09:32:56;;;;;;;6.13;2.90;;;;;;;15.12;84.14;99839.94;5048899;28;20212;-73
2023/03/30 09:35:31;;;;;;;7.17;3.10;;;;;;;15.31;83.71;99848.59;5042637;28;20205;-72
2023/03/30 09:37:57;;;;;;;3.50;2.70;;;;;;;15.53;82.85;99843.78;5049258;28;20245;-71
2023/03/30 09:40:57;;;;;;;4.27;2.50;;;;;;;15.69;82.17;99852.50;5057481;28;20225;-69
2023/03/30 09:43:34;;;;;;;5.03;2.90;;;;;;;15.98;80.23;99836.84;5036204;28;20626;-72
2023/03/30 09:46:05;;;;;;;7.63;2.40;;;;;;;16.25;77.74;99839.03;5052886;28;20198;-69
2023/03/30 09:48:45;;;;;;;6.50;2.40;;;;;;;16.52;76.59;99832.28;5050151;28;20211;-72
2023/03/30 09:51:22;;;;;;;4.70;2.47;;;;;;;16.72;75.74;99829.22;5052885;28;20252;-71
2023/03/30 09:53:56;;;;;;;4.03;2.23;;;;;;;16.84;74.41;99839.69;5060598;28;20623;-72
2023/03/30 09:56:45;;;;;;;7.80;2.43;;;;;;;16.85;73.76;99822.72;5056272;28;20200;-71
2023/03/30 09:59:28;;;;;;;8.07;2.23;;;;;;;16.88;74.15;99816.44;5055685;28;20205;-71
2023/03/30 10:02:11;;;;;;;5.60;2.37;;;;;;;16.87;73.39;99828.94;5055379;28;20194;-69
2023/03/30 10:04:52;;;;;;;6.53;2.30;;;;;;;16.84;72.72;99833.47;5052079;28;20226;-71
2023/03/30 10:07:26;;;;;;;5.90;2.20;;;;;;;16.99;72.76;99832.25;5044575;28;20214;-71
2023/03/30 10:09:53;;;;;;;4.47;2.03;;;;;;;17.04;71.72;99831.22;5043443;28;20217;-71
2023/03/30 10:12:23;;;;;;;8.40;2.37;;;;;;;17.42;69.92;99826.81;5039491;28;20199;-71
2023/03/30 10:14:54;;;;;;;4.50;2.13;;;;;;;18.02;67.74;99828.94;5042412;28;20214;-70
2023/03/30 10:17:26;;;;;;;7.27;2.53;;;;;;;18.30;66.52;99829.06;5036632;28;20220;-71
2023/03/30 10:20:12;;;;;;;6.83;2.07;;;;;;;18.42;65.13;99812.66;5044785;28;20195;-73
2023/03/30 10:22:50;;;;;;;3.73;1.80;;;;;;;18.29;64.47;99817.47;5044413;28;20218;-71
2023/03/30 10:25:20;;;;;;;6.23;2.10;;;;;;;18.38;64.75;99819.00;5046675;28;20619;-73
2023/03/30 10:27:49;;;;;;;6.43;2.03;;;;;;;18.60;62.37;99819.31;5057018;28;20252;-69
2023/03/30 10:30:22;;;;;;;4.77;1.70;;;;;;;19.21;61.09;99825.56;5055025;28;20282;-71
2023/03/30 10:32:50;;;;;;;5.00;1.90;;;;;;;19.63;59.15;99820.69;5052396;28;20249;-71
2023/03/30 10:35:23;;;;;;;5.63;1.77;;;;;;;19.89;56.15;99822.50;5048535;28;20278;-69
2023/03/30 10:37:53;;;;;;;6.37;1.93;;;;;;;19.87;56.55;99808.25;5051161;28;20772;-71
2023/03/30 10:40:41;;;;;;;4.88;1.80;;;;;;;19.37;57.05;99808.94;5046667;28;20250;-72
2023/03/30 10:43:15;;;;;;;5.77;2.50;;;;;;;18.94;58.49;99821.94;5051647;28;20202;-71
2023/03/30 10:45:53;;;;;;;7.13;2.83;;;;;;;18.59;59.01;99812.19;5048369;28;20236;-69
2023/03/30 10:48:29;;;;;;;5.17;2.40;;;;;;;18.66;59.13;99813.78;5050612;28;20726;-70
2023/03/30 10:51:18;;;;;;;3.97;1.80;;;;;;;18.72;59.02;99827.03;5044249;28;20256;-71
2023/03/30 10:53:52;;;;;;;6.27;2.10;;;;;;;18.93;59.01;99806.75;5048517;28;20195;-71
2023/03/30 10:56:24;;;;;;;4.40;1.83;;;;;;;19.27;57.91;99820.91;5049292;28;20915;-69
2023/03/30 10:58:58;;;;;;;4.23;1.77;;;;;;;19.63;55.71;99828.75;5049748;28;20215;-72
2023/03/30 11:02:05;;;;;;;5.15;1.60;;;;;;;19.89;55.18;99817.13;5051304;28;20369;-72
2023/03/30 11:04:38;;;;;;;3.15;1.70;;;;;;;19.91;54.42;99834.97;5046000;28;20310;-73
2023/03/30 11:07:15;;;;;;;4.50;1.17;;;;;;;19.36;51.46;99827.78;5044867;28;20717;-72
2023/03/30 11:09:47;;;;;;;3.23;1.30;;;;;;;18.95;51.86;99821.88;5046868;28;20194;-72
2023/03/30 11:12:19;;;;;;;4.20;1.50;;;;;;;18.36;52.68;99804.78;5055032;28;20573;-73
2023/03/30 11:14:51;;;;;;;2.97;1.20;;;;;;;18.06;54.21;99815.41;5053149;28;20252;-71
2023/03/30 11:17:32;;;;;;;3.77;1.70;;;;;;;17.48;55.86;99816.81;5055798;28;20761;-72
2023/03/30 11:20:16;;;;;;;3.57;1.37;;;;;;;17.36;57.30;99821.59;5049127;28;20195;-72
2023/03/30 11:23:13;;;;;;;7.20;1.40;;;;;;;17.33;57.78;99817.19;5041955;28;20260;-71
2023/03/30 11:25:54;;;;;;;4.50;1.40;;;;;;;17.43;57.82;99816.06;5041635;28;20553;-72
2023/03/30 11:28:35;;;;;;;4.93;1.50;;;;;;;17.80;56.06;99812.53;5044526;28;20246;-72
2023/03/30 11:31:13;;;;;;;3.73;1.40;;;;;;;18.61;55.13;99800.50;5041638;28;20196;-71
2023/03/30 11:33:52;;;;;;;4.77;1.50;;;;;;;19.16;52.03;99803.34;5042899;28;20202;-72
2023/03/30 11:36:54;;;;;;;4.77;1.70;;;;;;;19.79;49.03;99805.81;5037178;28;20409;-70
2023/03/30 11:39:29;;;;;;;1.83;1.10;;;;;;;20.23;46.51;99788.16;5040434;28;20197;-73
2023/03/30 11:42:23;;;;;;;7.40;1.17;;;;;;;20.43;46.01;99773.16;5049731;28;20595;-72
2023/03/30 11:44:51;;;;;;;5.72;1.40;;;;;;;20.46;46.45;99799.94;5039989;28;20211;-69
2023/03/30 11:47:29;;;;;;;2.15;1.15;;;;;;;20.17;47.25;99800.94;5040966;28;20313;-73
2023/03/30 11:50:22;;;;;;;3.27;1.27;;;;;;;19.39;47.06;99803.53;5041354;28;20205;-73
2023/03/30 11:53:07;;;;;;;3.97;1.30;;;;;;;19.04;47.91;99815.34;5040375;28;20209;-71
2023/03/30 11:56:00;;;;;;;1.53;0.90;;;;;;;18.62;47.70;99818.38;5040173;28;20191;-72
2023/03/30 11:58:41;;;;;;;2.50;1.10;;;;;;;18.50;49.14;99810.66;5041844;28;20230;-72